createdAt,value
2018-10-16T00:02:06.092Z,13.20
2018-10-16T00:04:34.274Z,12.93
2018-10-16T00:07:02.469Z,11.80
2018-10-16T00:09:30.648Z,14.30
2018-10-16T00:12:01.733Z,12.40
2018-10-16T00:14:30.257Z,12.50
2018-10-16T00:16:58.480Z,11.80
2018-10-16T00:19:26.686Z,15.80
2018-10-16T00:21:55.380Z,17.90
2018-10-16T00:24:23.757Z,26.53
2018-10-16T00:26:52.038Z,21.87
2018-10-16T00:29:20.829Z,17.70
2018-10-16T00:31:49.018Z,20.43
2018-10-16T00:34:17.324Z,16.20
2018-10-16T00:36:45.509Z,15.13
2018-10-16T00:39:15.975Z,13.47
2018-10-16T00:41:48.396Z,14.73
2018-10-16T00:44:16.585Z,16.10
2018-10-16T00:46:44.797Z,15.67
2018-10-16T00:49:12.968Z,14.50
2018-10-16T00:51:41.188Z,14.10
2018-10-16T00:54:09.673Z,16.83
2018-10-16T00:56:37.998Z,16.83
2018-10-16T00:59:06.917Z,17.83
2018-10-16T01:01:35.397Z,13.30
2018-10-16T01:04:04.792Z,15.63
2018-10-16T01:06:33.793Z,15.10
2018-10-16T01:09:02.016Z,13.17
2018-10-16T01:11:30.242Z,13.97
2018-10-16T01:13:58.821Z,13.20
2018-10-16T01:16:27.012Z,15.03
2018-10-16T01:18:55.192Z,18.03
2018-10-16T01:21:26.141Z,13.47
2018-10-16T01:23:54.335Z,13.67
2018-10-16T01:26:22.533Z,14.73
2018-10-16T01:28:50.728Z,15.63
2018-10-16T01:31:18.925Z,14.83
2018-10-16T01:33:47.220Z,15.33
2018-10-16T01:36:15.413Z,12.60
2018-10-16T01:38:43.601Z,16.53
2018-10-16T01:41:11.777Z,14.73
2018-10-16T01:43:40.403Z,13.43
2018-10-16T01:46:09.196Z,14.10
2018-10-16T01:48:37.877Z,13.60
2018-10-16T01:51:06.366Z,14.73
2018-10-16T01:53:34.544Z,14.40
2018-10-16T01:56:02.720Z,13.80
2018-10-16T01:58:30.901Z,12.30
2018-10-16T02:00:59.081Z,14.87
2018-10-16T02:03:27.277Z,13.67
2018-10-16T02:05:55.475Z,18.10
2018-10-16T02:08:23.664Z,12.63
2018-10-16T02:10:51.889Z,13.80
2018-10-16T02:13:20.073Z,14.40
2018-10-16T02:15:48.259Z,13.47
2018-10-16T02:18:16.448Z,15.03
2018-10-16T02:20:44.633Z,14.73
2018-10-16T02:23:12.861Z,12.97
2018-10-16T02:25:41.049Z,13.03
2018-10-16T02:28:09.265Z,12.37
2018-10-16T02:30:37.510Z,12.40
2018-10-16T02:33:05.893Z,16.27
2018-10-16T02:35:34.078Z,12.13
2018-10-16T02:38:02.286Z,14.83
2018-10-16T02:40:30.494Z,12.60
2018-10-16T02:42:58.671Z,11.93
2018-10-16T02:45:26.877Z,11.33
2018-10-16T02:47:55.062Z,12.80
2018-10-16T02:50:23.252Z,17.83
2018-10-16T02:52:51.447Z,13.20
2018-10-16T02:55:19.654Z,12.23
2018-10-16T02:57:47.857Z,13.03
2018-10-16T03:00:16.088Z,14.17
2018-10-16T03:02:44.300Z,11.33
2018-10-16T03:05:12.568Z,12.77
2018-10-16T03:07:41.533Z,13.17
2018-10-16T03:10:09.724Z,11.23
2018-10-16T03:12:37.912Z,13.00
2018-10-16T03:15:08.909Z,12.87
2018-10-16T03:17:37.301Z,14.33
2018-10-16T03:20:05.595Z,12.30
2018-10-16T03:22:33.785Z,13.00
2018-10-16T03:25:01.969Z,14.13
2018-10-16T03:27:30.145Z,13.37
2018-10-16T03:29:58.335Z,12.27
2018-10-16T03:32:26.535Z,16.40
2018-10-16T03:34:54.704Z,11.20
2018-10-16T03:37:22.936Z,12.40
2018-10-16T03:39:51.142Z,13.63
2018-10-16T03:42:19.320Z,16.03
2018-10-16T03:44:47.492Z,14.17
2018-10-16T03:47:15.672Z,13.73
2018-10-16T03:49:43.848Z,13.17
2018-10-16T03:52:12.033Z,15.73
2018-10-16T03:54:40.237Z,17.60
2018-10-16T03:57:08.477Z,23.37
2018-10-16T03:59:36.634Z,22.20
2018-10-16T04:02:04.958Z,24.40
2018-10-16T04:04:33.285Z,17.50
2018-10-16T04:07:01.498Z,14.17
2018-10-16T04:09:29.695Z,13.37
2018-10-16T04:11:57.893Z,14.90
2018-10-16T04:14:26.089Z,14.80
2018-10-16T04:16:54.333Z,14.40
2018-10-16T04:19:22.549Z,13.03
2018-10-16T04:21:50.757Z,13.40
2018-10-16T04:24:18.960Z,14.97
2018-10-16T04:26:47.190Z,12.60
2018-10-16T04:30:39.863Z,15.53
2018-10-16T04:33:08.072Z,14.53
2018-10-16T04:35:36.277Z,14.47
2018-10-16T04:38:04.585Z,13.17
2018-10-16T04:40:32.795Z,14.10
2018-10-16T04:43:01.625Z,14.40
2018-10-16T04:45:29.865Z,14.60
2018-10-16T04:47:59.122Z,15.40
2018-10-16T04:50:27.329Z,12.47
2018-10-16T04:52:55.539Z,12.30
2018-10-16T04:55:23.762Z,14.03
2018-10-16T04:57:51.978Z,13.13
2018-10-16T05:00:20.190Z,18.00
2018-10-16T05:02:48.380Z,13.37
2018-10-16T05:05:20.247Z,12.00
2018-10-16T05:07:48.956Z,13.20
2018-10-16T05:10:17.176Z,12.77
2018-10-16T05:12:45.391Z,15.20
2018-10-16T05:15:23.822Z,14.10
2018-10-16T05:17:52.076Z,15.10
2018-10-16T05:20:20.295Z,11.77
2018-10-16T05:22:48.666Z,12.50
2018-10-16T05:25:17.178Z,12.27
2018-10-16T05:27:45.393Z,14.20
2018-10-16T05:30:13.595Z,13.80
2018-10-16T05:32:41.837Z,12.10
2018-10-16T05:35:10.238Z,12.40
2018-10-16T05:37:39.237Z,12.40
2018-10-16T05:40:07.915Z,13.10
2018-10-16T05:42:36.496Z,14.10
2018-10-16T05:45:05.165Z,13.17
2018-10-16T05:47:33.373Z,15.13
2018-10-16T05:50:01.563Z,12.03
2018-10-16T05:52:29.864Z,12.50
2018-10-16T05:54:58.114Z,13.67
2018-10-16T05:57:26.328Z,13.43
2018-10-16T06:00:01.651Z,11.63
2018-10-16T06:02:29.887Z,15.07
2018-10-16T06:04:58.102Z,11.93
2018-10-16T06:07:26.330Z,13.33
2018-10-16T06:09:54.522Z,12.03
2018-10-16T06:12:22.810Z,13.77
2018-10-16T06:14:50.954Z,16.60
2018-10-16T06:17:19.137Z,14.50
2018-10-16T06:19:47.366Z,12.27
2018-10-16T06:22:15.558Z,15.50
2018-10-16T06:24:43.759Z,14.93
2018-10-16T06:27:11.949Z,14.47
2018-10-16T06:29:40.131Z,12.80
2018-10-16T06:32:08.321Z,13.63
2018-10-16T06:34:36.509Z,15.60
2018-10-16T06:37:05.021Z,15.03
2018-10-16T06:39:33.217Z,14.55
2018-10-16T06:42:01.401Z,11.77
2018-10-16T06:44:29.580Z,13.07
2018-10-16T06:46:57.943Z,14.00
2018-10-16T06:49:26.120Z,12.17
2018-10-16T06:51:54.296Z,11.40
2018-10-16T06:54:22.492Z,12.77
2018-10-16T06:56:50.672Z,11.70
2018-10-16T06:59:18.853Z,12.07
2018-10-16T07:01:47.043Z,12.37
2018-10-16T07:04:15.241Z,16.53
2018-10-16T07:06:43.473Z,13.60
2018-10-16T07:09:11.652Z,12.70
2018-10-16T07:53:02.645Z,12.40
2018-10-16T07:55:30.852Z,14.97
2018-10-16T07:57:59.036Z,11.37
2018-10-16T08:00:27.197Z,13.03
2018-10-16T08:02:55.412Z,11.67
2018-10-16T08:05:23.589Z,12.50
2018-10-16T08:07:52.494Z,13.43
2018-10-16T08:10:20.655Z,12.63
2018-10-16T08:12:48.890Z,12.77
2018-10-16T08:15:17.060Z,12.00
2018-10-16T08:17:45.221Z,13.27
2018-10-16T08:20:13.424Z,13.50
2018-10-16T08:22:41.576Z,13.60
2018-10-16T08:25:09.840Z,14.47
2018-10-16T08:27:38.076Z,17.03
2018-10-16T08:30:07.619Z,17.17
2018-10-16T08:32:35.789Z,13.97
2018-10-16T08:35:03.981Z,16.20
2018-10-16T08:39:45.439Z,17.80
2018-10-16T08:43:28.101Z,15.73
2018-10-16T09:32:40.205Z,10.87
2018-10-16T09:35:10.016Z,10.20
2018-10-16T09:37:38.469Z,11.67
2018-10-16T09:40:07.897Z,10.40
2018-10-16T09:42:36.073Z,14.20
2018-10-16T09:45:04.332Z,9.90
2018-10-16T09:47:32.473Z,11.93
2018-10-16T09:50:00.618Z,11.67
2018-10-16T09:52:28.871Z,12.27
2018-10-16T09:54:57.027Z,13.93
2018-10-16T09:57:25.169Z,11.10
2018-10-16T09:59:53.312Z,11.63
2018-10-16T10:02:21.443Z,11.83
2018-10-16T10:04:49.597Z,13.70
2018-10-16T10:07:17.736Z,11.53
2018-10-16T10:09:45.878Z,10.97
2018-10-16T10:12:14.169Z,11.43
2018-10-16T10:14:42.312Z,11.73
2018-10-16T10:17:10.460Z,8.73
2018-10-16T10:19:38.601Z,9.80
2018-10-16T10:22:06.765Z,10.90
2018-10-16T10:24:34.915Z,10.83
2018-10-16T10:27:03.053Z,11.20
2018-10-16T10:29:31.263Z,8.60
2018-10-16T10:31:59.348Z,9.30
2018-10-16T10:34:27.500Z,8.87
2018-10-16T10:36:55.646Z,9.60
2018-10-16T10:39:23.789Z,8.70
2018-10-16T10:41:51.994Z,9.83
2018-10-16T10:44:20.132Z,10.03
2018-10-16T10:46:48.264Z,8.30
2018-10-16T10:49:16.420Z,9.73
2018-10-16T10:51:44.672Z,12.23
2018-10-16T10:54:12.812Z,9.40
2018-10-16T10:56:41.025Z,7.87
2018-10-16T10:59:09.088Z,8.77
2018-10-16T11:01:37.224Z,8.60
2018-10-16T11:04:05.799Z,13.80
2018-10-16T11:06:33.939Z,10.43
2018-10-16T11:09:02.140Z,10.60
2018-10-16T11:11:30.252Z,10.57
2018-10-16T11:13:58.385Z,9.03
2018-10-16T11:16:26.532Z,12.53
2018-10-16T11:18:54.673Z,9.70
2018-10-16T11:21:22.826Z,10.10
2018-10-16T11:23:50.965Z,7.97
2018-10-16T11:26:19.113Z,9.63
2018-10-16T11:28:47.258Z,10.73
2018-10-16T11:31:15.392Z,9.20
2018-10-16T11:33:43.532Z,11.03
2018-10-16T11:36:11.700Z,9.30
2018-10-16T11:38:39.968Z,8.27
2018-10-16T11:41:08.127Z,8.30
2018-10-16T11:43:36.264Z,11.23
2018-10-16T11:46:04.880Z,10.40
2018-10-16T11:48:33.013Z,8.60
2018-10-16T11:51:01.160Z,8.93
2018-10-16T11:53:29.317Z,10.10
2018-10-16T11:55:57.503Z,15.93
2018-10-16T11:58:25.605Z,8.67
2018-10-16T12:00:53.748Z,9.87
2018-10-16T12:03:21.885Z,10.80
2018-10-16T12:05:50.039Z,10.83
2018-10-16T12:08:18.186Z,17.23
2018-10-16T12:10:46.417Z,9.30
2018-10-16T12:13:14.573Z,8.70
2018-10-16T12:15:42.605Z,13.00
2018-10-16T12:18:19.371Z,7.93
2018-10-16T12:20:52.385Z,10.63
2018-10-16T12:23:20.513Z,12.23
2018-10-16T12:25:48.669Z,11.40
2018-10-16T12:28:17.530Z,8.47
2018-10-16T12:30:45.673Z,8.67
2018-10-16T12:33:13.878Z,9.27
2018-10-16T12:35:42.073Z,8.67
2018-10-16T12:38:10.213Z,12.70
2018-10-16T12:40:38.354Z,9.87
2018-10-16T12:43:06.548Z,7.17
2018-10-16T12:45:34.728Z,8.93
2018-10-16T12:48:02.904Z,7.97
2018-10-16T12:50:31.596Z,6.93
2018-10-16T12:52:59.753Z,7.63
2018-10-16T12:55:27.877Z,8.23
2018-10-16T12:57:56.062Z,8.37
2018-10-16T13:00:24.201Z,7.00
2018-10-16T13:02:52.371Z,8.33
2018-10-16T13:05:20.571Z,10.17
2018-10-16T13:07:48.705Z,7.27
2018-10-16T13:10:18.020Z,7.80
2018-10-16T13:12:46.593Z,9.53
2018-10-16T13:15:15.591Z,8.07
2018-10-16T13:17:43.732Z,10.23
2018-10-16T13:20:13.266Z,9.03
2018-10-16T13:22:42.057Z,12.93
2018-10-16T13:25:11.877Z,7.30
2018-10-16T13:27:40.018Z,15.10
2018-10-16T13:30:10.273Z,7.73
2018-10-16T13:32:38.404Z,8.63
2018-10-16T13:35:08.807Z,7.90
2018-10-16T13:37:36.909Z,7.13
2018-10-16T13:40:06.072Z,11.13
2018-10-16T13:42:34.181Z,8.97
2018-10-16T13:45:02.497Z,8.07
2018-10-16T13:47:30.629Z,10.40
2018-10-16T13:49:58.823Z,8.37
2018-10-16T13:52:26.945Z,9.00
2018-10-16T13:54:55.197Z,7.37
2018-10-16T13:57:23.333Z,11.03
2018-10-16T13:59:51.649Z,7.10
2018-10-16T14:02:19.804Z,9.73
2018-10-16T14:04:48.002Z,9.20
2018-10-16T14:07:16.110Z,9.40
2018-10-16T14:09:44.860Z,9.67
2018-10-16T14:12:12.993Z,8.80
2018-10-16T14:14:41.142Z,7.53
2018-10-16T14:17:09.680Z,9.17
2018-10-16T14:19:38.280Z,11.00
2018-10-16T14:22:09.153Z,8.67
2018-10-16T14:24:37.204Z,7.10
2018-10-16T14:27:05.479Z,9.13
2018-10-16T14:29:33.619Z,11.63
2018-10-16T14:32:01.791Z,8.23
2018-10-16T14:34:30.003Z,9.17
2018-10-16T14:36:58.028Z,7.73
2018-10-16T14:39:26.181Z,8.90
2018-10-16T14:41:54.324Z,11.97
2018-10-16T14:44:22.468Z,7.90
2018-10-16T14:46:50.621Z,6.03
2018-10-16T14:49:18.775Z,7.77
2018-10-16T14:51:46.907Z,6.70
2018-10-16T14:54:15.068Z,7.23
2018-10-16T14:56:43.204Z,10.33
2018-10-16T14:59:11.365Z,8.40
2018-10-16T15:01:39.557Z,8.33
2018-10-16T15:04:07.722Z,6.80
2018-10-16T15:06:35.885Z,6.80
2018-10-16T15:09:05.937Z,8.60
2018-10-16T15:11:34.085Z,8.13
2018-10-16T15:14:02.280Z,8.90
2018-10-16T15:16:30.426Z,8.33
2018-10-16T15:18:58.601Z,7.27
2018-10-16T15:21:26.744Z,8.70
2018-10-16T15:23:54.890Z,8.73
2018-10-16T15:26:23.024Z,10.40
2018-10-16T15:28:51.171Z,11.03
2018-10-16T15:31:19.304Z,7.37
2018-10-16T15:33:47.449Z,8.63
2018-10-16T15:36:15.672Z,10.07
2018-10-16T15:38:43.776Z,7.00
2018-10-16T15:41:11.959Z,8.77
2018-10-16T15:43:40.072Z,7.80
2018-10-16T15:46:08.263Z,8.40
2018-10-16T15:48:36.357Z,11.77
2018-10-16T15:51:04.748Z,12.40
2018-10-16T15:53:32.904Z,9.23
2018-10-16T15:56:01.174Z,7.97
2018-10-16T15:58:29.257Z,12.43
2018-10-16T16:00:57.396Z,9.47
2018-10-16T16:03:25.532Z,8.77
2018-10-16T16:05:53.722Z,10.90
2018-10-16T16:08:21.837Z,15.87
2018-10-16T16:10:49.973Z,10.73
2018-10-16T16:13:18.121Z,12.33
2018-10-16T16:15:46.260Z,13.30
2018-10-16T16:18:14.462Z,14.37
2018-10-16T16:20:42.560Z,12.10
2018-10-16T16:23:10.725Z,17.73
2018-10-16T16:25:38.877Z,15.47
2018-10-16T16:28:07.051Z,17.97
2018-10-16T16:30:35.172Z,14.73
2018-10-16T16:33:03.321Z,12.80
2018-10-16T16:35:31.501Z,16.47
2018-10-16T16:37:59.702Z,12.40
2018-10-16T16:40:27.825Z,16.03
2018-10-16T16:42:55.977Z,14.37
2018-10-16T16:45:24.132Z,13.13
2018-10-16T16:47:52.289Z,13.13
2018-10-16T16:50:20.465Z,12.60
2018-10-16T16:52:48.621Z,13.17
2018-10-16T16:55:16.773Z,17.33
2018-10-16T16:57:44.952Z,19.43
2018-10-16T17:00:14.249Z,21.67
2018-10-16T17:02:43.766Z,15.43
2018-10-16T17:05:12.440Z,20.60
2018-10-16T17:07:41.032Z,32.77
2018-10-16T17:10:09.455Z,27.17
2018-10-16T17:12:38.097Z,21.90
2018-10-16T17:15:08.060Z,16.67
2018-10-16T17:17:36.356Z,13.67
2018-10-16T17:20:05.185Z,12.33
2018-10-16T17:22:33.283Z,16.87
2018-10-16T17:25:01.529Z,9.50
2018-10-16T17:27:29.753Z,10.73
2018-10-16T17:29:57.909Z,12.63
2018-10-16T17:32:26.052Z,16.27
2018-10-16T17:34:54.205Z,23.57
2018-10-16T17:37:22.361Z,16.77
2018-10-16T17:39:50.502Z,19.37
2018-10-16T17:42:18.694Z,16.10
2018-10-16T17:44:46.875Z,41.43
2018-10-16T17:47:15.017Z,38.20
2018-10-16T17:49:43.157Z,52.00
2018-10-16T17:52:11.671Z,40.10
2018-10-16T17:54:39.928Z,45.27
2018-10-16T17:57:08.502Z,26.50
2018-10-16T17:59:36.633Z,24.03
2018-10-16T18:02:04.817Z,21.80
2018-10-16T18:04:33.795Z,33.27
2018-10-16T18:07:01.948Z,29.13
2018-10-16T18:09:30.140Z,32.00
2018-10-16T18:11:58.370Z,20.60
2018-10-16T18:14:26.644Z,18.60
2018-10-16T18:16:54.870Z,31.00
2018-10-16T18:19:23.390Z,15.50
2018-10-16T18:21:51.559Z,24.83
2018-10-16T18:24:19.742Z,23.67
2018-10-16T18:26:47.894Z,17.50
2018-10-16T18:29:16.029Z,31.40
2018-10-16T18:31:44.179Z,24.43
2018-10-16T18:34:12.320Z,23.43
2018-10-16T18:36:40.477Z,20.03
2018-10-16T18:39:08.994Z,34.90
2018-10-16T18:41:37.413Z,28.80
2018-10-16T18:44:05.800Z,34.53
2018-10-16T18:46:33.944Z,23.73
2018-10-16T18:49:02.112Z,24.07
2018-10-16T18:51:30.272Z,27.97
2018-10-16T18:53:58.425Z,17.13
2018-10-16T18:56:26.585Z,38.33
2018-10-16T18:58:54.737Z,23.07
2018-10-16T19:01:22.889Z,16.90
2018-10-16T19:03:51.040Z,18.20
2018-10-16T19:06:19.172Z,21.47
2018-10-16T19:08:47.348Z,17.20
2018-10-16T19:11:15.500Z,20.77
2018-10-16T19:13:43.702Z,33.23
2018-10-16T19:16:11.871Z,20.53
2018-10-16T19:18:40.015Z,21.07
2018-10-16T19:21:08.385Z,15.73
2018-10-16T19:23:36.468Z,23.37
2018-10-16T19:26:04.936Z,15.97
2018-10-16T19:28:33.101Z,18.83
2018-10-16T19:31:01.248Z,20.53
2018-10-16T19:33:30.113Z,19.60
2018-10-16T19:35:58.248Z,15.83
2018-10-16T19:38:26.413Z,18.80
2018-10-16T19:40:54.553Z,17.73
2018-10-16T19:43:22.712Z,19.53
2018-10-16T19:45:50.901Z,14.23
2018-10-16T19:48:19.040Z,18.73
2018-10-16T19:50:47.205Z,16.47
2018-10-16T19:53:15.355Z,17.67
2018-10-16T19:55:43.505Z,21.40
2018-10-16T19:58:11.656Z,16.23
2018-10-16T20:09:20.750Z,17.20
2018-10-16T20:11:48.910Z,18.97
2018-10-16T20:14:17.213Z,17.30
2018-10-16T20:16:45.252Z,17.13
2018-10-16T20:19:13.424Z,15.73
2018-10-16T20:21:41.582Z,12.80
2018-10-16T20:24:09.753Z,18.23
2018-10-16T20:26:37.894Z,18.37
2018-10-16T20:29:06.033Z,18.47
2018-10-16T20:31:34.204Z,15.97
2018-10-16T20:34:02.340Z,18.27
2018-10-16T20:36:30.578Z,14.53
2018-10-16T20:38:58.686Z,17.77
2018-10-16T20:41:26.845Z,14.00
2018-10-16T20:43:54.985Z,17.50
2018-10-16T20:46:23.128Z,15.93
2018-10-16T20:48:51.363Z,17.43
2018-10-16T20:51:19.516Z,19.23
2018-10-16T20:53:47.663Z,18.57
2018-10-16T20:56:15.824Z,16.23
2018-10-16T20:58:44.061Z,16.13
2018-10-16T21:01:13.575Z,15.70
2018-10-16T21:03:41.685Z,15.50
2018-10-16T21:06:10.064Z,19.40
2018-10-16T21:08:39.624Z,19.37
2018-10-16T21:11:07.786Z,17.23
2018-10-16T21:13:36.047Z,20.57
2018-10-16T21:16:04.193Z,21.80
2018-10-16T21:18:32.347Z,17.97
2018-10-16T21:21:00.698Z,19.63
2018-10-16T21:23:28.850Z,21.07
2018-10-16T21:25:58.880Z,17.93
2018-10-16T21:28:27.352Z,18.33
2018-10-16T21:30:55.522Z,38.70
2018-10-16T21:33:23.649Z,26.87
2018-10-16T21:35:51.799Z,28.50
2018-10-16T21:38:19.946Z,28.80
2018-10-16T21:40:48.095Z,26.53
2018-10-16T21:43:16.301Z,27.10
2018-10-16T21:45:44.773Z,27.10
2018-10-16T21:48:13.052Z,31.37
2018-10-16T21:50:41.192Z,28.43
2018-10-16T21:53:09.447Z,24.10
2018-10-16T21:55:37.676Z,19.40
2018-10-16T21:58:06.056Z,19.97
2018-10-16T22:00:40.052Z,20.43
2018-10-16T22:03:08.232Z,17.17
2018-10-16T22:05:36.352Z,21.10
2018-10-16T22:08:04.561Z,18.33
